Time;durP1;ratioP1;P1;durP2;ratioP2;P2;SDS_P1;SDS_P2;PMS_P1;PMS_P2;Temp;Humidity;BMP_temperature;BMP_pressure;BME280_temperature;BME280_humidity;BME280_pressure;Samples;Min_cycle;Max_cycle;Signal;HPM_P1;HPM_P2
2022/07/07 00:01:31;;;;;;;0.90;0.53;;;;;;;16.57;63.07;101323.91;5073284;28;20467;-67
2022/07/07 00:03:58;;;;;;;0.80;0.43;;;;;;;16.57;64.79;101318.44;5073207;28;21017;-67
2022/07/07 00:06:26;;;;;;;0.73;0.50;;;;;;;16.64;65.43;101321.47;5073156;28;20966;-67
2022/07/07 00:08:54;;;;;;;1.00;0.70;;;;;;;16.71;64.88;101316.31;5073419;28;20494;-68
2022/07/07 00:11:22;;;;;;;0.73;0.47;;;;;;;16.74;64.31;101323.13;5073031;28;20441;-68
2022/07/07 00:13:49;;;;;;;0.93;0.50;;;;;;;16.76;65.23;101310.72;5073423;28;20433;-68
2022/07/07 00:16:17;;;;;;;1.67;0.50;;;;;;;16.78;63.79;101308.47;5073387;28;20441;-68
2022/07/07 00:18:44;;;;;;;0.93;0.60;;;;;;;16.85;64.45;101305.22;5073228;28;20433;-68
2022/07/07 00:21:10;;;;;;;1.00;0.60;;;;;;;16.84;64.55;101295.41;5073184;28;20968;-67
2022/07/07 00:23:37;;;;;;;0.70;0.40;;;;;;;16.83;64.72;101300.06;5073429;28;20434;-68
2022/07/07 00:26:04;;;;;;;3.27;0.60;;;;;;;16.86;64.17;101296.66;5073130;28;20483;-70
2022/07/07 00:28:31;;;;;;;0.70;0.40;;;;;;;16.87;63.99;101295.56;5073030;28;20895;-68
2022/07/07 00:30:58;;;;;;;1.17;0.70;;;;;;;16.85;63.88;101297.81;5072926;28;20903;-69
2022/07/07 00:33:26;;;;;;;1.23;0.60;;;;;;;16.93;62.82;101300.84;5073644;28;20448;-68
2022/07/07 00:35:52;;;;;;;0.70;0.50;;;;;;;16.93;62.24;101301.66;5073508;28;20438;-68
2022/07/07 00:38:19;;;;;;;1.83;1.00;;;;;;;16.95;62.06;101299.38;5073136;28;20510;-68
2022/07/07 00:40:50;;;;;;;2.40;0.60;;;;;;;16.89;63.20;101303.44;5073086;28;20469;-68
2022/07/07 00:43:16;;;;;;;1.27;0.40;;;;;;;16.86;62.81;101304.88;5073189;28;20432;-68
2022/07/07 00:45:46;;;;;;;2.43;1.13;;;;;;;16.86;62.71;101304.06;5072973;28;20517;-67
2022/07/07 00:48:13;;;;;;;0.83;0.50;;;;;;;16.81;63.20;101285.91;5074700;28;20441;-68
2022/07/07 00:50:43;;;;;;;1.20;0.70;;;;;;;16.79;63.43;101295.59;5076860;28;20555;-68
2022/07/07 00:53:10;;;;;;;1.00;0.43;;;;;;;16.71;64.23;101294.44;5076944;28;20467;-68
2022/07/07 00:55:37;;;;;;;1.83;0.60;;;;;;;16.69;64.73;101293.97;5077028;28;20449;-68
2022/07/07 00:58:03;;;;;;;1.33;0.83;;;;;;;16.70;64.56;101298.31;5076584;28;21029;-68
2022/07/07 01:00:30;;;;;;;1.10;0.50;;;;;;;16.56;67.81;101292.22;5076459;28;21055;-68
2022/07/07 01:02:57;;;;;;;0.60;0.40;;;;;;;16.37;71.75;101290.59;5076917;28;20544;-69
2022/07/07 01:05:25;;;;;;;2.13;0.80;;;;;;;16.17;72.98;101287.72;5076765;28;20476;-68
2022/07/07 01:07:53;;;;;;;2.10;0.67;;;;;;;15.93;74.97;101293.66;5076403;28;20441;-68
2022/07/07 01:10:20;;;;;;;0.80;0.50;;;;;;;15.83;75.82;101287.38;5076392;28;20485;-67
2022/07/07 01:12:46;;;;;;;0.80;0.60;;;;;;;15.72;77.77;101283.34;5076270;28;20473;-68
2022/07/07 01:15:14;;;;;;;1.30;0.70;;;;;;;15.60;79.51;101280.41;5076233;28;20917;-68
2022/07/07 01:17:41;;;;;;;2.70;0.87;;;;;;;15.53;82.09;101280.03;5076515;28;20949;-69
2022/07/07 01:20:10;;;;;;;0.80;0.50;;;;;;;15.47;82.87;101282.13;5076474;28;20448;-67
2022/07/07 01:22:38;;;;;;;1.87;0.70;;;;;;;15.31;84.76;101276.28;5076275;28;20530;-67
2022/07/07 01:25:07;;;;;;;1.40;0.93;;;;;;;15.21;86.73;101284.75;5076356;28;20826;-68
2022/07/07 01:27:34;;;;;;;1.23;0.80;;;;;;;15.08;88.72;101269.28;5076154;28;20528;-67
2022/07/07 01:30:01;;;;;;;1.37;0.60;;;;;;;14.94;90.30;101268.59;5076412;28;20460;-68
2022/07/07 01:32:28;;;;;;;0.93;0.60;;;;;;;14.88;93.74;101270.66;5075926;28;20794;-67
2022/07/07 01:34:55;;;;;;;0.80;0.60;;;;;;;14.78;95.68;101260.00;5076199;28;20437;-67
2022/07/07 01:37:24;;;;;;;0.90;0.50;;;;;;;14.74;97.48;101268.00;5076069;28;20433;-67
2022/07/07 01:39:51;;;;;;;0.87;0.63;;;;;;;14.68;96.14;101258.34;5076064;28;20468;-67
2022/07/07 01:42:20;;;;;;;2.20;0.53;;;;;;;14.61;98.10;101260.72;5076096;28;20525;-67
2022/07/07 01:44:50;;;;;;;7.73;0.90;;;;;;;14.62;99.32;101251.41;5075944;28;20440;-67
2022/07/07 01:47:17;;;;;;;1.00;0.60;;;;;;;14.61;100.00;101261.53;5075613;28;20922;-67
2022/07/07 01:49:44;;;;;;;1.10;0.60;;;;;;;14.55;100.00;101256.50;5075915;28;20564;-67
2022/07/07 01:52:11;;;;;;;3.60;0.50;;;;;;;14.54;100.00;101254.88;5075764;28;20463;-67
2022/07/07 01:54:39;;;;;;;0.73;0.60;;;;;;;14.58;100.00;101240.31;5075955;28;20465;-68
2022/07/07 01:57:07;;;;;;;1.80;0.80;;;;;;;14.56;100.00;101252.63;5075787;28;20425;-68
2022/07/07 01:59:35;;;;;;;1.83;0.80;;;;;;;14.55;100.00;101251.03;5074081;28;20607;-68
2022/07/07 02:02:02;;;;;;;1.00;0.70;;;;;;;14.51;100.00;101245.41;5075431;28;20890;-68
2022/07/07 02:04:29;;;;;;;0.80;0.57;;;;;;;14.48;100.00;101239.75;5075664;28;20532;-68
2022/07/07 02:06:56;;;;;;;0.97;0.70;;;;;;;14.46;100.00;101239.25;5075555;28;20507;-68
2022/07/07 02:09:23;;;;;;;1.03;0.50;;;;;;;14.44;100.00;101238.75;5075435;28;20917;-68
2022/07/07 02:11:50;;;;;;;1.93;1.10;;;;;;;14.48;100.00;101237.03;5075339;28;20445;-68
2022/07/07 02:14:16;;;;;;;1.30;0.87;;;;;;;14.39;100.00;101228.78;5075579;28;20502;-67
2022/07/07 02:16:44;;;;;;;1.00;0.80;;;;;;;14.35;100.00;101234.06;5075136;28;20530;-68
2022/07/07 02:19:11;;;;;;;1.30;0.80;;;;;;;14.30;100.00;101226.00;5075299;28;20540;-67
2022/07/07 02:21:37;;;;;;;1.00;0.80;;;;;;;14.25;100.00;101219.84;5075347;28;20532;-67
2022/07/07 02:24:04;;;;;;;1.77;0.93;;;;;;;14.26;100.00;101222.28;5075048;28;20536;-68
2022/07/07 02:26:33;;;;;;;1.30;0.97;;;;;;;14.20;100.00;101217.25;5075094;28;20481;-69
2022/07/07 02:28:59;;;;;;;1.47;0.80;;;;;;;14.21;100.00;101214.25;5074839;28;20456;-69
2022/07/07 02:31:26;;;;;;;1.50;1.17;;;;;;;14.19;100.00;101216.47;5075089;28;20473;-69
2022/07/07 02:33:54;;;;;;;2.73;0.63;;;;;;;14.22;100.00;101215.03;5075181;28;20433;-69
2022/07/07 02:36:20;;;;;;;0.90;0.70;;;;;;;14.19;100.00;101210.22;5075265;28;20437;-69
2022/07/07 02:38:49;;;;;;;1.63;0.90;;;;;;;14.21;100.00;101211.53;5074616;28;20803;-68
2022/07/07 02:41:16;;;;;;;1.20;0.77;;;;;;;14.28;100.00;101209.16;5074950;28;20469;-71
2022/07/07 02:43:43;;;;;;;1.20;0.70;;;;;;;14.36;100.00;101213.06;5074950;28;20484;-69
2022/07/07 02:46:09;;;;;;;1.37;1.10;;;;;;;14.32;100.00;101209.34;5074845;28;20517;-68
2022/07/07 02:48:36;;;;;;;0.90;0.63;;;;;;;14.27;100.00;101206.75;5074792;28;20536;-69
2022/07/07 02:51:04;;;;;;;1.53;0.73;;;;;;;14.21;100.00;101203.34;5074305;28;20484;-69
2022/07/07 02:53:30;;;;;;;1.13;0.80;;;;;;;14.11;100.00;101200.84;5074181;28;20460;-69
2022/07/07 02:55:57;;;;;;;2.03;1.30;;;;;;;14.11;100.00;101198.13;5074656;28;20531;-70
2022/07/07 02:58:23;;;;;;;1.40;0.87;;;;;;;14.10;100.00;101199.25;5074385;28;21002;-70
2022/07/07 03:00:51;;;;;;;1.07;0.70;;;;;;;14.11;100.00;101192.66;5074688;28;20497;-71
2022/07/07 03:03:18;;;;;;;1.00;0.70;;;;;;;14.10;100.00;101186.41;5074480;28;20449;-68
2022/07/07 03:05:45;;;;;;;1.03;0.70;;;;;;;14.15;100.00;101182.78;5073990;28;21068;-71
2022/07/07 03:08:13;;;;;;;1.20;1.00;;;;;;;14.23;100.00;101190.19;5074391;28;20475;-70
2022/07/07 03:10:40;;;;;;;2.07;1.10;;;;;;;14.23;100.00;101182.03;5073991;28;20496;-70
2022/07/07 03:13:07;;;;;;;1.80;0.90;;;;;;;14.25;100.00;101181.72;5074296;28;20465;-70
2022/07/07 03:15:33;;;;;;;1.43;1.33;;;;;;;14.27;100.00;101180.28;5074315;28;20536;-70
2022/07/07 03:18:00;;;;;;;1.43;1.07;;;;;;;14.27;100.00;101180.28;5073975;28;20441;-71
2022/07/07 03:20:26;;;;;;;2.33;1.40;;;;;;;14.27;100.00;101174.84;5074161;28;20552;-70
2022/07/07 03:22:53;;;;;;;3.80;0.97;;;;;;;14.29;100.00;101171.78;5073926;28;20520;-70
2022/07/07 03:25:21;;;;;;;1.80;1.00;;;;;;;14.31;100.00;101164.94;5074102;28;20467;-69
2022/07/07 03:27:48;;;;;;;1.30;1.00;;;;;;;14.30;100.00;101168.78;5074275;28;20496;-69
2022/07/07 03:30:15;;;;;;;2.50;0.80;;;;;;;14.29;100.00;101178.03;5073866;28;20548;-70
2022/07/07 03:32:41;;;;;;;1.30;0.97;;;;;;;14.34;100.00;101167.03;5073983;28;20818;-70
2022/07/07 03:35:08;;;;;;;1.40;1.00;;;;;;;14.36;100.00;101161.25;5073887;28;20468;-70
2022/07/07 03:37:36;;;;;;;1.47;1.27;;;;;;;14.41;100.00;101163.06;5073810;28;20441;-70
2022/07/07 03:40:03;;;;;;;1.17;0.97;;;;;;;14.38;100.00;101167.19;5073912;28;20466;-71
2022/07/07 03:42:31;;;;;;;1.50;1.20;;;;;;;14.39;100.00;101164.19;5073789;28;20447;-69
2022/07/07 03:44:58;;;;;;;5.63;1.00;;;;;;;14.44;100.00;101165.16;5073636;28;20516;-70
2022/07/07 03:47:24;;;;;;;2.70;1.60;;;;;;;14.42;100.00;101164.66;5073593;28;20572;-68
2022/07/07 03:49:51;;;;;;;2.10;1.43;;;;;;;14.37;100.00;101163.66;5073529;28;20462;-70
2022/07/07 03:52:17;;;;;;;5.20;1.27;;;;;;;14.34;100.00;101163.47;5074785;28;20548;-69
2022/07/07 03:54:44;;;;;;;1.40;1.10;;;;;;;14.33;100.00;101157.22;5073560;28;20445;-70
2022/07/07 03:57:11;;;;;;;1.30;1.17;;;;;;;14.31;100.00;101158.69;5073442;28;20483;-68
2022/07/07 03:59:39;;;;;;;1.13;0.80;;;;;;;14.28;100.00;101154.66;5073292;28;20472;-69
2022/07/07 04:02:06;;;;;;;2.00;1.20;;;;;;;14.26;100.00;101148.72;5073055;28;20975;-70
2022/07/07 04:04:32;;;;;;;2.60;1.23;;;;;;;14.29;100.00;101142.63;5073408;28;20436;-70
2022/07/07 04:06:59;;;;;;;1.67;1.10;;;;;;;14.31;100.00;101143.13;5073408;28;20516;-71
2022/07/07 04:09:26;;;;;;;1.50;1.23;;;;;;;14.32;100.00;101136.56;5073279;28;20485;-70
2022/07/07 04:11:52;;;;;;;2.23;1.60;;;;;;;14.30;100.00;101127.09;5073240;28;20528;-70
2022/07/07 04:14:19;;;;;;;1.80;1.50;;;;;;;14.34;100.00;101128.06;5073455;28;20503;-70
2022/07/07 04:16:47;;;;;;;2.20;1.50;;;;;;;14.34;100.00;101122.59;5073406;28;20852;-71
2022/07/07 04:19:14;;;;;;;1.90;1.20;;;;;;;14.31;100.00;101125.97;5073300;28;20564;-70
2022/07/07 04:21:41;;;;;;;3.73;1.60;;;;;;;14.28;100.00;101112.97;5073098;28;20450;-70
2022/07/07 04:24:08;;;;;;;4.17;1.97;;;;;;;14.29;100.00;101114.56;5072590;28;20449;-70
2022/07/07 04:26:35;;;;;;;2.37;1.20;;;;;;;14.33;100.00;101110.91;5073581;28;20479;-70
2022/07/07 04:29:02;;;;;;;2.30;1.47;;;;;;;14.31;100.00;101106.91;5073247;28;20532;-71
2022/07/07 04:31:28;;;;;;;2.17;1.63;;;;;;;14.31;100.00;101106.91;5073064;28;20955;-68
2022/07/07 04:33:56;;;;;;;2.30;1.40;;;;;;;14.27;100.00;101100.47;5073245;28;20480;-68
2022/07/07 04:36:23;;;;;;;3.37;1.47;;;;;;;14.28;100.00;101094.69;5073148;28;20516;-69
2022/07/07 04:38:50;;;;;;;2.23;1.40;;;;;;;14.30;100.00;101092.47;5072798;28;20471;-71
2022/07/07 04:41:16;;;;;;;1.47;1.23;;;;;;;14.30;100.00;101086.22;5073101;28;20536;-67
2022/07/07 04:43:43;;;;;;;2.03;1.47;;;;;;;14.32;100.00;101092.94;5073118;28;20997;-68
2022/07/07 04:46:09;;;;;;;3.53;1.80;;;;;;;14.30;100.00;101087.03;5072908;28;20568;-67
2022/07/07 04:48:36;;;;;;;2.77;1.60;;;;;;;14.32;100.00;101086.69;5073138;28;20529;-68
2022/07/07 04:51:05;;;;;;;1.10;1.00;;;;;;;14.35;100.00;101088.81;5073016;28;20469;-69
2022/07/07 04:53:31;;;;;;;2.63;1.40;;;;;;;14.35;100.00;101077.91;5073009;28;20473;-69
2022/07/07 04:55:58;;;;;;;3.30;1.87;;;;;;;14.35;100.00;101080.63;5073166;28;20437;-70
2022/07/07 04:58:24;;;;;;;2.20;1.40;;;;;;;14.35;100.00;101078.72;5072887;28;20445;-68
2022/07/07 05:00:51;;;;;;;3.37;2.00;;;;;;;14.36;100.00;101079.50;5072635;28;20978;-69
2022/07/07 05:03:18;;;;;;;1.60;1.07;;;;;;;14.35;100.00;101078.72;5072693;28;20439;-68
2022/07/07 05:05:44;;;;;;;2.33;1.30;;;;;;;14.36;100.00;101074.06;5072461;28;20444;-69
2022/07/07 05:08:12;;;;;;;1.77;1.50;;;;;;;14.39;100.00;101082.41;5072774;28;20938;-70
2022/07/07 05:10:39;;;;;;;2.10;1.63;;;;;;;14.35;100.00;101070.53;5072902;28;20459;-70
2022/07/07 05:13:05;;;;;;;2.40;1.43;;;;;;;14.35;100.00;101073.25;5072495;28;20477;-70
2022/07/07 05:15:32;;;;;;;2.60;0.97;;;;;;;14.31;100.00;101072.28;5072779;28;20480;-70
2022/07/07 05:17:58;;;;;;;3.60;1.30;;;;;;;14.34;100.00;101074.38;5072457;28;20437;-70
2022/07/07 05:20:25;;;;;;;1.60;1.47;;;;;;;14.30;100.00;101070.69;5072709;28;20544;-68
2022/07/07 05:22:52;;;;;;;1.63;1.33;;;;;;;14.29;100.00;101071.75;5072837;28;20495;-70
2022/07/07 05:25:19;;;;;;;2.97;1.53;;;;;;;14.33;100.00;101069.22;5072290;28;20531;-69
2022/07/07 05:27:48;;;;;;;1.80;1.53;;;;;;;14.35;100.00;101073.25;5072543;28;20576;-69
2022/07/07 05:30:14;;;;;;;2.03;1.13;;;;;;;14.35;100.00;101073.25;5072565;28;20883;-69
2022/07/07 05:32:41;;;;;;;1.57;1.17;;;;;;;14.38;100.00;101071.81;5072255;28;20444;-70
2022/07/07 05:35:08;;;;;;;2.00;1.23;;;;;;;14.37;100.00;101060.09;5075686;28;20481;-70
2022/07/07 05:37:35;;;;;;;1.93;1.50;;;;;;;14.35;100.00;101067.81;5076212;28;20471;-70
2022/07/07 05:40:02;;;;;;;2.37;1.40;;;;;;;14.36;100.00;101063.94;5076162;28;20493;-71
2022/07/07 05:42:30;;;;;;;2.27;1.40;;;;;;;14.36;100.00;101063.94;5076158;28;20438;-69
2022/07/07 05:44:56;;;;;;;1.90;1.60;;;;;;;14.35;100.00;101067.00;5075767;28;20524;-69
2022/07/07 05:47:23;;;;;;;3.70;1.40;;;;;;;14.33;100.00;101067.31;5076022;28;20568;-68
2022/07/07 05:49:49;;;;;;;1.80;1.00;;;;;;;14.32;100.00;101068.44;5075935;28;20457;-68
2022/07/07 05:52:16;;;;;;;2.50;1.50;;;;;;;14.28;100.00;101067.44;5075649;28;20459;-68
2022/07/07 05:54:42;;;;;;;1.77;1.13;;;;;;;14.23;100.00;101069.50;5075900;28;20492;-69
2022/07/07 05:57:09;;;;;;;1.43;1.20;;;;;;;14.23;100.00;101064.84;5075933;28;20524;-68
2022/07/07 05:59:37;;;;;;;1.93;1.60;;;;;;;14.24;100.00;101061.00;5075806;28;20549;-68
2022/07/07 06:02:04;;;;;;;1.53;1.30;;;;;;;14.30;100.00;101061.69;5075469;28;20931;-68
2022/07/07 06:04:31;;;;;;;2.37;1.83;;;;;;;14.25;100.00;101064.53;5075702;28;20543;-68
2022/07/07 06:06:57;;;;;;;2.10;1.57;;;;;;;14.28;100.00;101056.53;5075678;28;20571;-69
2022/07/07 06:09:24;;;;;;;1.90;1.33;;;;;;;14.30;100.00;101059.78;5075569;28;20465;-68
2022/07/07 06:11:51;;;;;;;2.50;1.77;;;;;;;14.29;100.00;101052.69;5075354;28;20463;-67
2022/07/07 06:14:18;;;;;;;2.00;1.73;;;;;;;14.33;100.00;101063.78;5075518;28;20473;-67
2022/07/07 06:16:46;;;;;;;1.93;1.47;;;;;;;14.33;100.00;101056.41;5075216;28;20524;-68
2022/07/07 06:19:14;;;;;;;4.07;2.13;;;;;;;14.38;100.00;101056.25;5075374;28;20461;-68
2022/07/07 06:21:42;;;;;;;4.73;1.83;;;;;;;14.41;100.00;101048.59;5075441;28;20532;-68
2022/07/07 06:24:09;;;;;;;1.87;1.17;;;;;;;14.41;100.00;101059.47;5075414;28;20460;-68
2022/07/07 06:26:36;;;;;;;2.07;1.50;;;;;;;14.43;100.00;101046.31;5075078;28;20577;-67
2022/07/07 06:29:03;;;;;;;1.77;1.50;;;;;;;14.46;100.00;101051.97;5074850;28;20451;-68
2022/07/07 06:31:30;;;;;;;1.97;1.70;;;;;;;14.46;100.00;101048.44;5075240;28;20463;-67
2022/07/07 06:33:58;;;;;;;2.43;1.50;;;;;;;14.46;100.00;101051.16;5075216;28;20541;-67
2022/07/07 06:36:25;;;;;;;1.63;1.20;;;;;;;14.49;100.00;101045.13;5074826;28;20600;-66
2022/07/07 06:38:51;;;;;;;2.47;1.70;;;;;;;14.60;100.00;101041.75;5075252;28;20533;-68
2022/07/07 06:41:18;;;;;;;1.30;1.17;;;;;;;14.70;100.00;101045.31;5074639;28;20947;-67
2022/07/07 06:43:45;;;;;;;1.50;1.20;;;;;;;14.71;100.00;101047.75;5075009;28;20463;-67
2022/07/07 06:46:11;;;;;;;2.33;1.60;;;;;;;14.76;100.00;101047.59;5073732;28;20453;-67
2022/07/07 06:48:38;;;;;;;1.80;1.43;;;;;;;14.80;100.00;101048.56;5074555;28;20941;-67
2022/07/07 06:51:06;;;;;;;1.33;0.97;;;;;;;14.81;100.00;101046.63;5074807;28;20552;-66
2022/07/07 06:53:32;;;;;;;2.90;1.40;;;;;;;14.80;100.00;101045.84;5074604;28;20531;-66
2022/07/07 06:55:59;;;;;;;2.40;1.83;;;;;;;14.87;100.00;101051.63;5074351;28;20535;-68
2022/07/07 06:58:26;;;;;;;2.23;1.70;;;;;;;14.89;100.00;101048.59;5074594;28;20520;-67
2022/07/07 07:00:52;;;;;;;2.00;1.33;;;;;;;14.92;100.00;101047.94;5074596;28;20507;-68
2022/07/07 07:03:19;;;;;;;1.50;1.07;;;;;;;14.97;100.00;101052.44;5074588;28;20445;-67
2022/07/07 07:05:45;;;;;;;2.47;1.67;;;;;;;14.95;100.00;101046.50;5074534;28;20528;-68
2022/07/07 07:08:13;;;;;;;1.10;0.93;;;;;;;14.99;100.00;101047.47;5074345;28;20487;-72
2022/07/07 07:10:40;;;;;;;1.20;1.00;;;;;;;15.01;100.00;101047.97;5074288;28;20923;-70
2022/07/07 07:13:06;;;;;;;1.83;1.57;;;;;;;15.06;100.00;101045.06;5074481;28;20532;-70
2022/07/07 07:15:33;;;;;;;1.43;1.33;;;;;;;15.10;100.00;101037.84;5074332;28;20527;-69
2022/07/07 07:18:00;;;;;;;2.50;1.10;;;;;;;15.11;100.00;101044.91;5074342;28;20456;-71
2022/07/07 07:20:26;;;;;;;1.20;0.93;;;;;;;15.15;100.00;101045.88;5074172;28;20548;-71
2022/07/07 07:22:53;;;;;;;1.67;1.40;;;;;;;15.21;100.00;101047.31;5074260;28;20442;-70
2022/07/07 07:25:21;;;;;;;1.70;1.17;;;;;;;15.19;100.00;101046.84;5074190;28;20446;-70
2022/07/07 07:27:48;;;;;;;2.00;1.40;;;;;;;15.21;100.00;101041.88;5074004;28;20481;-69
2022/07/07 07:30:15;;;;;;;1.20;0.87;;;;;;;15.25;100.00;101051.00;5073956;28;20493;-68
2022/07/07 07:32:42;;;;;;;2.03;1.30;;;;;;;15.21;100.00;101036.41;5074087;28;20456;-68
2022/07/07 07:35:09;;;;;;;2.17;1.50;;;;;;;15.19;100.00;101046.84;5074083;28;20469;-70
2022/07/07 07:37:38;;;;;;;1.40;1.03;;;;;;;15.25;100.00;101037.38;5073924;28;20520;-70
2022/07/07 07:40:07;;;;;;;1.13;1.03;;;;;;;15.32;100.00;101037.69;5073945;28;20826;-69
2022/07/07 07:42:35;;;;;;;1.57;1.40;;;;;;;15.31;100.00;101038.81;5073847;28;20443;-69
2022/07/07 07:45:11;;;;;;;1.43;1.33;;;;;;;15.38;100.00;101038.31;5073747;28;20449;-69
2022/07/07 07:47:38;;;;;;;1.37;1.27;;;;;;;15.43;100.00;101029.19;5073736;28;20500;-68
2022/07/07 07:50:06;;;;;;;1.40;1.10;;;;;;;15.45;100.00;101035.09;5073639;28;20548;-70
2022/07/07 07:52:32;;;;;;;1.33;1.13;;;;;;;15.53;100.00;101028.84;5073683;28;20942;-68
2022/07/07 07:54:59;;;;;;;1.30;1.20;;;;;;;15.59;100.00;101033.81;5073718;28;20437;-70
2022/07/07 07:57:26;;;;;;;1.53;1.40;;;;;;;15.65;100.00;101029.00;5072292;28;20517;-67
2022/07/07 07:59:55;;;;;;;2.03;1.60;;;;;;;15.73;100.00;101030.94;5073178;28;20500;-68
2022/07/07 08:02:22;;;;;;;1.33;1.03;;;;;;;15.79;100.00;101026.88;5073631;28;20518;-68
2022/07/07 08:04:48;;;;;;;1.40;1.27;;;;;;;15.76;100.00;101032.19;5073204;28;20477;-68
2022/07/07 08:07:15;;;;;;;2.10;1.47;;;;;;;15.79;100.00;101029.63;5073337;28;20477;-68
2022/07/07 08:09:42;;;;;;;1.30;1.13;;;;;;;15.82;100.00;101031.72;5073441;28;20483;-69
2022/07/07 08:12:09;;;;;;;1.87;1.47;;;;;;;15.82;100.00;101037.16;5073544;28;20532;-69
2022/07/07 08:14:35;;;;;;;1.67;1.57;;;;;;;15.81;100.00;101034.78;5073210;28;20899;-68
2022/07/07 08:17:03;;;;;;;1.60;1.30;;;;;;;15.79;100.00;101026.09;5073271;28;20898;-68
2022/07/07 08:19:30;;;;;;;1.40;0.97;;;;;;;15.87;100.00;101028.00;5073091;28;21126;-68
2022/07/07 08:21:57;;;;;;;2.37;1.80;;;;;;;15.83;100.00;101036.03;5073323;28;20437;-68
2022/07/07 08:24:23;;;;;;;0.93;0.83;;;;;;;15.88;100.00;101029.59;5073301;28;20524;-68
2022/07/07 08:26:50;;;;;;;1.60;1.30;;;;;;;15.95;100.00;101032.63;5073195;28;20533;-69
2022/07/07 08:29:16;;;;;;;2.07;1.40;;;;;;;16.01;100.00;101028.59;5072924;28;20523;-68
2022/07/07 08:31:43;;;;;;;1.30;1.00;;;;;;;16.08;100.00;101028.91;5073414;28;20472;-69
2022/07/07 08:34:11;;;;;;;2.00;1.67;;;;;;;16.10;100.00;101034.81;5073313;28;20512;-68
2022/07/07 08:36:38;;;;;;;1.30;1.20;;;;;;;16.10;100.00;101031.28;5073422;28;20451;-69
2022/07/07 08:39:05;;;;;;;2.83;1.27;;;;;;;16.11;100.00;101035.63;5073054;28;20493;-69
2022/07/07 08:41:31;;;;;;;2.00;1.60;;;;;;;16.10;100.00;101032.09;5073186;28;20811;-69
2022/07/07 08:43:59;;;;;;;2.20;1.77;;;;;;;16.14;100.00;101032.25;5073216;28;20532;-69
2022/07/07 08:46:25;;;;;;;2.17;1.63;;;;;;;16.17;100.00;101037.06;5072860;28;21034;-69
2022/07/07 08:48:54;;;;;;;2.17;1.70;;;;;;;16.19;100.00;101029.31;5072617;28;20575;-70
2022/07/07 08:51:22;;;;;;;1.57;1.37;;;;;;;16.25;100.00;101028.03;5072670;28;20968;-69
2022/07/07 08:53:48;;;;;;;2.20;1.40;;;;;;;16.33;100.00;101029.91;5073401;28;20516;-69
2022/07/07 08:56:16;;;;;;;1.57;1.10;;;;;;;16.36;100.00;101032.00;5073020;28;20539;-69
2022/07/07 08:58:43;;;;;;;1.30;1.20;;;;;;;16.38;100.00;101034.41;5073291;28;20437;-67
2022/07/07 09:01:10;;;;;;;1.47;1.37;;;;;;;16.47;100.00;101031.59;5072990;28;20524;-70
2022/07/07 09:03:37;;;;;;;1.90;1.70;;;;;;;16.51;100.00;101024.34;5073149;28;20441;-69
2022/07/07 09:06:04;;;;;;;1.87;1.63;;;;;;;16.42;100.00;101026.31;5072595;28;20527;-69
2022/07/07 09:08:33;;;;;;;1.47;1.33;;;;;;;16.40;100.00;101024.72;5073349;28;20489;-69
2022/07/07 09:11:00;;;;;;;1.87;1.57;;;;;;;16.43;100.00;101020.56;5076580;28;20453;-69
2022/07/07 09:13:29;;;;;;;2.50;1.77;;;;;;;16.47;100.00;101028.88;5076703;28;20520;-69
2022/07/07 09:15:57;;;;;;;1.97;1.53;;;;;;;16.45;100.00;101025.69;5076756;28;20457;-68
2022/07/07 09:18:35;;;;;;;1.97;1.47;;;;;;;16.49;100.00;101030.16;5076614;28;20433;-69
2022/07/07 09:21:03;;;;;;;5.30;2.10;;;;;;;16.58;100.00;101039.13;5076549;28;20472;-69
2022/07/07 09:23:32;;;;;;;3.33;1.60;;;;;;;16.63;100.00;101025.25;5076626;28;20477;-69
2022/07/07 09:25:59;;;;;;;1.60;1.47;;;;;;;16.63;100.00;101021.72;5076506;28;20541;-69
2022/07/07 09:28:27;;;;;;;2.50;1.90;;;;;;;16.61;100.00;101024.00;5076363;28;20489;-69
2022/07/07 09:30:55;;;;;;;2.30;1.70;;;;;;;16.63;100.00;101024.44;5076448;28;20457;-68
2022/07/07 09:33:24;;;;;;;2.90;1.70;;;;;;;16.59;100.00;101024.31;5075999;28;20886;-69
2022/07/07 09:38:40;;;;;;;2.23;1.33;;;;;;;16.69;100.00;101030.53;5076368;28;21037;-68
2022/07/07 09:41:10;;;;;;;9.93;2.30;;;;;;;16.78;100.00;101032.13;5075769;28;20457;-69
2022/07/07 09:43:38;;;;;;;3.43;2.47;;;;;;;16.91;100.00;101033.00;5075900;28;20440;-68
2022/07/07 09:46:11;;;;;;;2.40;1.83;;;;;;;16.96;100.00;101032.00;5076109;28;20441;-69
2022/07/07 09:48:40;;;;;;;1.90;1.70;;;;;;;17.09;100.00;101039.16;5076016;28;20477;-69
2022/07/07 09:51:17;;;;;;;4.33;2.30;;;;;;;17.14;100.00;101042.47;5075957;28;20984;-69
2022/07/07 09:54:03;;;;;;;2.37;1.90;;;;;;;17.11;100.00;101037.66;5075997;28;20452;-69
2022/07/07 09:56:32;;;;;;;2.57;2.37;;;;;;;17.23;100.00;101044.34;5076303;28;20434;-68
2022/07/07 09:59:00;;;;;;;2.67;2.47;;;;;;;17.36;100.00;101037.81;5075864;28;20446;-69
2022/07/07 10:01:28;;;;;;;2.63;1.73;;;;;;;17.52;100.00;101033.28;5075748;28;20499;-68
2022/07/07 10:03:57;;;;;;;2.83;2.50;;;;;;;17.57;100.00;101035.00;5075751;28;21018;-69
2022/07/07 10:06:25;;;;;;;3.07;2.23;;;;;;;17.61;100.00;101033.19;5075763;28;20454;-68
2022/07/07 10:08:56;;;;;;;3.50;2.63;;;;;;;17.62;100.00;101034.81;5075178;28;20558;-69
2022/07/07 10:11:31;;;;;;;3.80;2.30;;;;;;;17.57;100.00;101044.03;5075961;28;20417;-69
2022/07/07 10:14:03;;;;;;;2.20;1.90;;;;;;;17.60;100.00;101042.56;5075649;28;20433;-70
2022/07/07 10:16:30;;;;;;;3.90;2.37;;;;;;;17.55;100.00;101040.03;5075361;28;20904;-70
2022/07/07 10:18:57;;;;;;;2.90;2.00;;;;;;;17.60;100.00;101048.84;5075477;28;20528;-69
2022/07/07 10:21:24;;;;;;;2.73;2.43;;;;;;;17.58;100.00;101050.34;5074453;28;20548;-69
2022/07/07 10:23:51;;;;;;;2.40;2.07;;;;;;;17.52;100.00;101049.72;5075449;28;20991;-69
2022/07/07 10:26:18;;;;;;;3.77;2.50;;;;;;;17.46;100.00;101053.00;5075395;28;20449;-69
2022/07/07 10:28:59;;;;;;;2.70;2.17;;;;;;;17.34;100.00;101057.28;5075164;28;20571;-70
2022/07/07 10:31:28;;;;;;;3.57;2.13;;;;;;;17.29;100.00;101062.19;5075611;28;20432;-69
2022/07/07 10:33:56;;;;;;;2.63;2.00;;;;;;;17.25;100.00;101070.25;5075560;28;20445;-69
2022/07/07 10:36:23;;;;;;;2.70;2.20;;;;;;;17.21;100.00;101058.38;5075329;28;20469;-70
2022/07/07 10:38:53;;;;;;;2.30;1.83;;;;;;;17.27;100.00;101067.19;5074793;28;20448;-69
2022/07/07 10:41:24;;;;;;;2.77;2.20;;;;;;;17.24;100.00;101060.44;5074813;28;20448;-69
2022/07/07 10:44:03;;;;;;;1.93;1.70;;;;;;;17.25;100.00;101062.03;5075295;28;20450;-70
2022/07/07 10:46:30;;;;;;;2.93;1.90;;;;;;;17.31;100.00;101060.72;5074973;28;20512;-68
2022/07/07 10:49:09;;;;;;;2.10;1.90;;;;;;;17.39;100.00;101067.22;5074757;28;20572;-71
2022/07/07 10:51:53;;;;;;;3.20;2.37;;;;;;;17.40;100.00;101064.19;5074612;28;20460;-70
2022/07/07 10:54:35;;;;;;;2.30;1.80;;;;;;;17.47;100.00;101073.78;5074822;28;20433;-70
2022/07/07 10:57:13;;;;;;;5.67;2.60;;;;;;;17.48;100.00;101070.69;5074819;28;20484;-70
2022/07/07 11:00:15;;;;;;;2.93;2.60;;;;;;;17.52;100.00;101068.91;5074448;28;20981;-69
2022/07/07 11:02:47;;;;;;;3.37;2.70;;;;;;;17.54;100.00;101071.31;5031784;28;20507;-70
2022/07/07 11:05:33;;;;;;;4.57;3.20;;;;;;;17.62;100.00;101070.44;5074713;28;20834;-70
2022/07/07 11:08:14;;;;;;;2.83;2.40;;;;;;;17.70;100.00;101063.25;5074470;28;20519;-72
2022/07/07 11:10:46;;;;;;;2.70;2.47;;;;;;;17.63;100.00;101061.88;5074593;28;20463;-69
2022/07/07 11:13:16;;;;;;;3.03;2.73;;;;;;;17.67;100.00;101063.94;5074756;28;20445;-70
2022/07/07 11:15:44;;;;;;;2.93;2.67;;;;;;;17.65;100.00;101061.53;5074487;28;20465;-70
2022/07/07 11:18:13;;;;;;;3.27;2.80;;;;;;;17.61;100.00;101071.56;5074160;28;20438;-71
2022/07/07 11:20:56;;;;;;;3.20;2.70;;;;;;;17.59;100.00;101071.09;5074341;28;20493;-70
2022/07/07 11:23:24;;;;;;;3.17;2.60;;;;;;;17.57;100.00;101078.84;5074336;28;20508;-69
2022/07/07 11:25:55;;;;;;;3.40;2.80;;;;;;;17.54;100.00;101066.63;5073809;28;21007;-70